Station Historical Data
Daily Summary for September 5, 2017 Units:  English    Metric   Both
« Previous Day
Next Day »
Daily Weekly Monthly Yearly Custom
  High: Low: Average:
Temperature: 71.0 °F 58.0 °F 64.5 °F
Dew Point: 64.0 °F 53.7 °F 57.3 °F
Humidity: 91% 57% 78%
Wind Speed: 9.0mph 0.0mph 2.3mph
Wind Gust: 16.0mph - -
Wind- - WSW
Pressure: 29.81 in 29.60 in -
Precipitation: 0.00 in    
Historical Graphs
 
 
Tabular Data for September 5, 2017
Time Temperature Dew Point Pressure Wind Wind Speed Wind Gust Humidity Rainfall Rate (Hourly)
00:04 67.0 °F 64.0 °F 29.61 in SSW 3.0 mph 6.0 mph 90% 0.09 in
00:09 67.0 °F 64.0 °F 29.60 in WSW 2.0 mph 4.0 mph 90% 0.09 in
00:14 66.8 °F 63.8 °F 29.61 in West 3.0 mph 7.0 mph 90% 0.09 in
00:19 66.7 °F 63.7 °F 29.61 in WSW 3.0 mph 6.0 mph 90% 0.10 in
00:24 66.6 °F 63.6 °F 29.62 in WSW 3.0 mph 5.0 mph 90% 0.06 in
00:29 66.5 °F 63.5 °F 29.62 in West 3.0 mph 8.0 mph 90% 0.06 in
00:34 66.5 °F 63.5 °F 29.63 in WSW 4.0 mph 8.0 mph 90% 0.04 in
00:39 66.4 °F 63.4 °F 29.63 in WSW 4.0 mph 8.0 mph 90% 0.04 in
00:44 66.3 °F 63.3 °F 29.64 in WSW 3.0 mph 8.0 mph 90% 0.04 in
00:49 66.4 °F 63.4 °F 29.65 in West 6.0 mph 9.0 mph 90% 0.04 in
00:54 66.3 °F 63.3 °F 29.64 in NW 1.0 mph 8.0 mph 90% 0.05 in
00:59 66.1 °F 63.1 °F 29.64 in West 4.0 mph 8.0 mph 90% 0.05 in
01:04 66.0 °F 63.0 °F 29.64 in West 5.0 mph 8.0 mph 90% 0.08 in
01:09 65.9 °F 62.9 °F 29.64 in West 2.0 mph 8.0 mph 90% 0.08 in
01:14 65.8 °F 62.8 °F 29.64 in WNW 6.0 mph 7.0 mph 90% 0.08 in
01:19 65.8 °F 62.8 °F 29.65 in West 4.0 mph 8.0 mph 90% 0.07 in
01:24 65.7 °F 62.7 °F 29.64 in WNW 5.0 mph 8.0 mph 90% 0.07 in
01:29 65.5 °F 62.5 °F 29.65 in West 4.0 mph 9.0 mph 90% 0.07 in
01:34 65.3 °F 62.3 °F 29.65 in WNW 5.0 mph 9.0 mph 90% 0.07 in
01:39 65.0 °F 62.0 °F 29.66 in WNW 4.0 mph 9.0 mph 90% 0.07 in
01:44 64.4 °F 61.1 °F 29.67 in WNW 4.0 mph 10.0 mph 89% 0.07 in
01:49 63.7 °F 60.4 °F 29.67 in WNW 4.0 mph 13.0 mph 89% 0.06 in
01:54 63.2 °F 59.9 °F 29.66 in NW 4.0 mph 13.0 mph 89% 0.05 in
01:59 62.8 °F 59.2 °F 29.66 in NW 4.0 mph 9.0 mph 88% 0.05 in
02:09 62.3 °F 58.7 °F 29.66 in NW 3.0 mph 11.0 mph 88% 0.01 in
02:14 62.2 °F 58.6 °F 29.67 in WNW 3.0 mph 8.0 mph 88% 0.01 in
02:19 62.0 °F 58.4 °F 29.68 in WNW 2.0 mph 7.0 mph 88% 0.01 in
02:24 61.9 °F 58.3 °F 29.67 in NW 2.0 mph 7.0 mph 88% 0.01 in
02:29 61.9 °F 58.3 °F 29.67 in WNW 3.0 mph 7.0 mph 88% 0.01 in
02:34 61.8 °F 58.2 °F 29.67 in NW 2.0 mph 6.0 mph 88% 0.01 in
02:39 61.6 °F 58.3 °F 29.67 in West 2.0 mph 5.0 mph 89% 0.01 in
02:44 61.5 °F 58.2 °F 29.68 in West 5.0 mph 5.0 mph 89% 0.01 in
02:49 61.4 °F 58.1 °F 29.67 in WNW 1.0 mph 6.0 mph 89% 0.01 in
02:54 61.3 °F 58.0 °F 29.67 in WNW 1.0 mph 6.0 mph 89% 0.01 in
02:59 61.2 °F 57.9 °F 29.67 in Calm   5.0 mph 89% 0.01 in
03:04 61.1 °F 57.8 °F 29.67 in West 1.0 mph 6.0 mph 89% 0.01 in
03:09 61.1 °F 57.8 °F 29.68 in WNW 2.0 mph 6.0 mph 89% 0.00 in
03:14 61.0 °F 57.7 °F 29.68 in WNW 3.0 mph 7.0 mph 89% 0.00 in
03:19 60.9 °F 57.6 °F 29.67 in NW 1.0 mph 4.0 mph 89% 0.00 in
03:24 60.8 °F 57.5 °F 29.67 in NW 1.0 mph 5.0 mph 89% 0.00 in
03:29 60.8 °F 57.5 °F 29.67 in NW 1.0 mph 5.0 mph 89% 0.00 in
03:34 60.8 °F 57.2 °F 29.68 in NW 1.0 mph 4.0 mph 88% 0.00 in
03:39 60.8 °F 57.2 °F 29.68 in Calm   4.0 mph 88% 0.00 in
03:44 60.8 °F 57.2 °F 29.68 in West 2.0 mph 5.0 mph 88% 0.00 in
03:49 60.8 °F 57.2 °F 29.69 in Calm   4.0 mph 88% 0.00 in
03:54 60.8 °F 57.2 °F 29.68 in Calm     88% 0.00 in
03:59 60.7 °F 57.1 °F 29.68 in Calm     88% 0.00 in
04:04 60.6 °F 57.0 °F 29.67 in Calm     88% 0.00 in
04:09 60.5 °F 56.9 °F 29.68 in Calm     88% 0.00 in
04:14 60.4 °F 56.8 °F 29.68 in Calm     88% 0.00 in
04:19 60.4 °F 57.1 °F 29.68 in Calm     89% 0.00 in
04:24 60.2 °F 56.9 °F 29.68 in Calm     89% 0.00 in
04:29 60.1 °F 56.8 °F 29.67 in Calm     89% 0.00 in
04:34 59.9 °F 56.6 °F 29.67 in Calm     89% 0.00 in
04:39 59.8 °F 56.6 °F 29.67 in Calm     89% 0.00 in
04:44 59.8 °F 56.9 °F 29.68 in Calm     90% 0.00 in
04:49 59.8 °F 56.9 °F 29.68 in Calm     90% 0.00 in
04:54 59.8 °F 56.9 °F 29.68 in Calm     90% 0.00 in
04:59 59.8 °F 56.9 °F 29.68 in Calm     90% 0.00 in
05:04 59.9 °F 57.3 °F 29.69 in Calm     91% 0.00 in
05:09 59.8 °F 57.2 °F 29.69 in Calm     91% 0.00 in
05:14 59.8 °F 57.2 °F 29.68 in Calm     91% 0.00 in
05:19 59.8 °F 57.2 °F 29.68 in Calm     91% 0.00 in
05:24 59.8 °F 57.2 °F 29.68 in Calm     91% 0.00 in
05:29 59.8 °F 57.2 °F 29.68 in Calm     91% 0.00 in
05:34 59.8 °F 57.2 °F 29.69 in Calm     91% 0.00 in
05:39 59.8 °F 57.2 °F 29.69 in Calm     91% 0.00 in
05:44 59.9 °F 57.3 °F 29.69 in Calm     91% 0.00 in
05:49 60.0 °F 57.4 °F 29.69 in Calm     91% 0.00 in
05:54 60.0 °F 57.4 °F 29.69 in Calm     91% 0.00 in
05:59 60.0 °F 57.4 °F 29.70 in Calm     91% 0.00 in
06:04 60.0 °F 57.4 °F 29.70 in Calm     91% 0.00 in
06:09 60.0 °F 57.4 °F 29.70 in Calm     91% 0.00 in
06:14 60.0 °F 57.1 °F 29.70 in Calm   1.0 mph 90% 0.00 in
06:19 60.0 °F 57.1 °F 29.70 in Calm   1.0 mph 90% 0.00 in
06:24 60.0 °F 57.1 °F 29.70 in Calm   1.0 mph 90% 0.00 in
06:29 60.1 °F 57.2 °F 29.70 in Calm     90% 0.00 in
06:34 60.0 °F 57.1 °F 29.70 in Calm     90% 0.00 in
06:39 59.9 °F 57.0 °F 29.71 in Calm     90% 0.00 in
06:44 59.9 °F 57.0 °F 29.71 in Calm     90% 0.00 in
06:49 59.9 °F 57.0 °F 29.71 in Calm     90% 0.00 in
06:54 60.0 °F 57.1 °F 29.71 in Calm     90% 0.00 in
06:59 59.9 °F 57.0 °F 29.71 in Calm     90% 0.00 in
07:04 59.9 °F 57.0 °F 29.71 in Calm     90% 0.00 in
07:09 59.8 °F 56.9 °F 29.71 in Calm     90% 0.00 in
07:14 59.6 °F 56.7 °F 29.71 in Calm     90% 0.00 in
07:19 59.5 °F 56.6 °F 29.71 in Calm     90% 0.00 in
07:24 59.5 °F 56.6 °F 29.71 in Calm     90% 0.00 in
07:29 59.5 °F 56.6 °F 29.72 in Calm     90% 0.00 in
07:34 59.7 °F 56.8 °F 29.72 in Calm   3.0 mph 90% 0.00 in
07:39 59.7 °F 56.8 °F 29.72 in Calm     90% 0.00 in
07:44 59.9 °F 57.0 °F 29.72 in Calm     90% 0.00 in
07:49 60.0 °F 57.1 °F 29.72 in Calm     90% 0.00 in
07:54 60.1 °F 56.8 °F 29.72 in Calm     89% 0.00 in
07:59 60.1 °F 56.8 °F 29.72 in Calm     89% 0.00 in
08:04 60.1 °F 56.8 °F 29.73 in Calm     89% 0.00 in
08:09 60.2 °F 56.9 °F 29.73 in Calm   2.0 mph 89% 0.00 in
08:14 60.4 °F 57.1 °F 29.73 in Calm   2.0 mph 89% 0.00 in
08:19 60.4 °F 57.1 °F 29.73 in Calm   1.0 mph 89% 0.00 in
08:24 60.5 °F 57.2 °F 29.73 in Calm   3.0 mph 89% 0.00 in
08:29 60.6 °F 57.0 °F 29.72 in Calm   2.0 mph 88% 0.00 in
08:34 60.7 °F 57.1 °F 29.72 in Calm   3.0 mph 88% 0.00 in
08:39 60.7 °F 57.1 °F 29.72 in Calm   2.0 mph 88% 0.00 in
08:44 60.8 °F 57.2 °F 29.72 in Calm   2.0 mph 88% 0.00 in
08:49 61.0 °F 57.1 °F 29.72 in West 1.0 mph 2.0 mph 87% 0.00 in
08:54 61.1 °F 57.2 °F 29.71 in West 2.0 mph 3.0 mph 87% 0.00 in
08:59 61.2 °F 57.3 °F 29.72 in WNW 2.0 mph 3.0 mph 87% 0.00 in
09:04 61.2 °F 57.0 °F 29.71 in Calm   3.0 mph 86% 0.00 in
09:09 61.4 °F 57.2 °F 29.72 in Calm   4.0 mph 86% 0.00 in
09:14 61.6 °F 57.4 °F 29.72 in WNW 1.0 mph 3.0 mph 86% 0.00 in
09:19 61.7 °F 57.5 °F 29.72 in WNW 1.0 mph 4.0 mph 86% 0.00 in
09:24 61.8 °F 57.6 °F 29.72 in WNW 2.0 mph 4.0 mph 86% 0.00 in
09:29 61.8 °F 57.6 °F 29.72 in NW 1.0 mph 4.0 mph 86% 0.00 in
09:34 61.8 °F 57.2 °F 29.72 in West 2.0 mph 4.0 mph 85% 0.00 in
09:39 62.0 °F 57.4 °F 29.72 in WNW 2.0 mph 4.0 mph 85% 0.00 in
09:44 62.2 °F 57.6 °F 29.71 in West 2.0 mph 4.0 mph 85% 0.00 in
09:49 62.6 °F 57.7 °F 29.72 in West 1.0 mph 3.0 mph 84% 0.00 in
09:54 62.8 °F 57.9 °F 29.72 in Calm   2.0 mph 84% 0.00 in
09:59 63.1 °F 57.9 °F 29.72 in Calm     83% 0.00 in
10:04 62.9 °F 57.0 °F 29.72 in Calm   3.0 mph 81% 0.00 in
10:09 62.9 °F 57.0 °F 29.72 in Calm   3.0 mph 81% 0.00 in
10:14 63.0 °F 57.1 °F 29.72 in Calm     81% 0.00 in
10:19 62.9 °F 56.3 °F 29.72 in Calm     79% 0.00 in
10:24 63.1 °F 56.8 °F 29.71 in Calm     80% 0.00 in
10:29 63.3 °F 56.7 °F 29.70 in Calm     79% 0.00 in
10:34 63.9 °F 57.3 °F 29.71 in Calm     79% 0.00 in
10:39 63.9 °F 56.2 °F 29.72 in Calm     76% 0.00 in
10:44 64.2 °F 55.7 °F 29.72 in Calm   3.0 mph 74% 0.00 in
10:49 64.6 °F 56.9 °F 29.72 in Calm   3.0 mph 76% 0.00 in
10:54 64.8 °F 56.3 °F 29.72 in Calm     74% 0.00 in
10:59 64.8 °F 55.9 °F 29.72 in Calm     73% 0.00 in
11:04 65.0 °F 55.8 °F 29.72 in Calm     72% 0.00 in
11:09 65.6 °F 56.7 °F 29.72 in Calm   4.0 mph 73% 0.00 in
11:14 65.8 °F 55.3 °F 29.72 in South 1.0 mph 4.0 mph 69% 0.00 in
11:19 65.9 °F 55.8 °F 29.72 in SSW 1.0 mph 3.0 mph 70% 0.00 in
11:24 66.4 °F 56.3 °F 29.72 in SSW 1.0 mph 4.0 mph 70% 0.00 in
11:29 66.6 °F 55.7 °F 29.72 in SSW 2.0 mph 4.0 mph 68% 0.00 in
11:34 67.0 °F 56.1 °F 29.72 in Calm   4.0 mph 68% 0.00 in
11:39 67.7 °F 56.3 °F 29.72 in South 1.0 mph 4.0 mph 67% 0.00 in
11:44 67.5 °F 56.6 °F 29.72 in South 2.0 mph 5.0 mph 68% 0.00 in
11:49 67.2 °F 55.0 °F 29.72 in WSW 3.0 mph 5.0 mph 65% 0.00 in
11:54 67.4 °F 54.4 °F 29.72 in Calm   6.0 mph 63% 0.00 in
11:59 67.7 °F 56.8 °F 29.72 in WSW 3.0 mph 5.0 mph 68% 0.00 in
12:04 68.3 °F 55.2 °F 29.72 in West 2.0 mph 4.0 mph 63% 0.00 in
12:09 67.8 °F 54.7 °F 29.72 in SW 1.0 mph 4.0 mph 63% 0.00 in
12:14 68.3 °F 55.2 °F 29.72 in SW 2.0 mph 7.0 mph 63% 0.00 in
12:19 68.2 °F 55.1 °F 29.71 in SW 2.0 mph 7.0 mph 63% 0.00 in
12:24 68.4 °F 55.7 °F 29.71 in SSW 2.0 mph 5.0 mph 64% 0.00 in
12:29 68.8 °F 56.6 °F 29.71 in South 2.0 mph 5.0 mph 65% 0.00 in
12:34 69.5 °F 55.9 °F 29.71 in SSW 2.0 mph 5.0 mph 62% 0.00 in
12:39 69.9 °F 54.0 °F 29.71 in WNW 5.0 mph 6.0 mph 57% 0.00 in
12:44 69.6 °F 54.2 °F 29.72 in SSW 4.0 mph 5.0 mph 58% 0.00 in
12:49 69.9 °F 54.9 °F 29.71 in West 4.0 mph 7.0 mph 59% 0.00 in
12:54 69.4 °F 54.0 °F 29.71 in WSW 1.0 mph 7.0 mph 58% 0.00 in
12:59 69.6 °F 55.1 °F 29.72 in SW 7.0 mph 8.0 mph 60% 0.00 in
13:04 69.8 °F 54.4 °F 29.72 in WSW 3.0 mph 8.0 mph 58% 0.00 in
13:09 69.6 °F 53.7 °F 29.72 in SW 7.0 mph 9.0 mph 57% 0.00 in
13:14 70.2 °F 54.7 °F 29.72 in WSW 4.0 mph 9.0 mph 58% 0.00 in
13:19 70.4 °F 54.4 °F 29.72 in WSW 4.0 mph 8.0 mph 57% 0.00 in
13:24 70.1 °F 55.1 °F 29.72 in WSW 4.0 mph 8.0 mph 59% 0.00 in
13:29 70.0 °F 55.5 °F 29.72 in SW 9.0 mph 9.0 mph 60% 0.00 in
13:34 69.9 °F 56.3 °F 29.72 in NW 3.0 mph 12.0 mph 62% 0.00 in
13:39 70.2 °F 55.2 °F 29.72 in West 4.0 mph 7.0 mph 59% 0.00 in
13:44 70.9 °F 55.9 °F 29.72 in WSW 4.0 mph 9.0 mph 59% 0.00 in
13:49 70.6 °F 55.6 °F 29.72 in SW 5.0 mph 10.0 mph 59% 0.00 in
13:54 70.2 °F 57.0 °F 29.72 in SW 5.0 mph 10.0 mph 63% 0.00 in
13:59 69.9 °F 55.8 °F 29.72 in SW 3.0 mph 10.0 mph 61% 0.00 in
14:04 70.1 °F 56.9 °F 29.72 in South 6.0 mph 8.0 mph 63% 0.00 in
14:09 70.9 °F 57.2 °F 29.72 in SW 6.0 mph 7.0 mph 62% 0.00 in
14:14 70.4 °F 56.3 °F 29.72 in SW 5.0 mph 14.0 mph 61% 0.00 in
14:19 70.6 °F 56.9 °F 29.72 in SW 5.0 mph 14.0 mph 62% 0.00 in
14:24 70.3 °F 57.1 °F 29.72 in West 4.0 mph 12.0 mph 63% 0.00 in
14:29 70.5 °F 57.3 °F 29.72 in WSW 4.0 mph 12.0 mph 63% 0.00 in
14:34 70.7 °F 57.5 °F 29.72 in SSW 7.0 mph 15.0 mph 63% 0.00 in
14:39 70.2 °F 57.0 °F 29.72 in WSW 6.0 mph 12.0 mph 63% 0.00 in
14:44 70.3 °F 57.5 °F 29.72 in WSW 7.0 mph 12.0 mph 64% 0.00 in
14:49 70.5 °F 57.7 °F 29.72 in WSW 6.0 mph 11.0 mph 64% 0.00 in
14:54 70.4 °F 57.2 °F 29.72 in SW 6.0 mph 15.0 mph 63% 0.00 in
14:59 70.8 °F 58.0 °F 29.72 in SW 6.0 mph 15.0 mph 64% 0.00 in
15:04 71.0 °F 58.2 °F 29.72 in WSW 6.0 mph 14.0 mph 64% 0.00 in
15:09 70.4 °F 58.1 °F 29.72 in SW 6.0 mph 14.0 mph 65% 0.00 in
15:14 70.0 °F 56.8 °F 29.72 in WSW 7.0 mph 15.0 mph 63% 0.00 in
15:19 70.2 °F 57.9 °F 29.72 in South 7.0 mph 12.0 mph 65% 0.00 in
15:24 70.1 °F 56.5 °F 29.72 in West 3.0 mph 13.0 mph 62% 0.00 in
15:29 70.4 °F 57.2 °F 29.72 in WSW 7.0 mph 13.0 mph 63% 0.00 in
15:34 70.8 °F 57.1 °F 29.72 in West 4.0 mph 13.0 mph 62% 0.00 in
15:39 69.7 °F 56.5 °F 29.71 in WSW 6.0 mph 16.0 mph 63% 0.00 in
15:44 69.8 °F 57.1 °F 29.72 in SW 6.0 mph 16.0 mph 64% 0.00 in
15:49 70.3 °F 57.1 °F 29.72 in WSW 6.0 mph 11.0 mph 63% 0.00 in
15:54 70.3 °F 56.7 °F 29.72 in WSW 6.0 mph 12.0 mph 62% 0.00 in
15:59 70.0 °F 55.9 °F 29.72 in SW 6.0 mph 15.0 mph 61% 0.00 in
16:04 70.1 °F 57.4 °F 29.72 in SW 7.0 mph 15.0 mph 64% 0.00 in
16:09 70.1 °F 56.5 °F 29.72 in SW 6.0 mph 15.0 mph 62% 0.00 in
16:14 69.5 °F 56.3 °F 29.72 in WSW 6.0 mph 15.0 mph 63% 0.00 in
16:19 69.8 °F 57.1 °F 29.73 in WSW 6.0 mph 15.0 mph 64% 0.00 in
16:24 70.1 °F 57.8 °F 29.73 in WSW 4.0 mph 10.0 mph 65% 0.00 in
16:29 70.0 °F 57.7 °F 29.73 in SW 5.0 mph 15.0 mph 65% 0.00 in
16:34 69.2 °F 57.4 °F 29.73 in WSW 8.0 mph 15.0 mph 66% 0.00 in
16:39 69.0 °F 57.6 °F 29.72 in SW 3.0 mph 9.0 mph 67% 0.00 in
16:44 68.8 °F 57.8 °F 29.73 in WSW 6.0 mph 11.0 mph 68% 0.00 in
16:49 68.7 °F 57.7 °F 29.73 in SW 6.0 mph 11.0 mph 68% 0.00 in
16:54 68.6 °F 57.2 °F 29.73 in SW 6.0 mph 14.0 mph 67% 0.00 in
16:59 68.4 °F 57.4 °F 29.72 in SW 8.0 mph 14.0 mph 68% 0.00 in
17:04 68.5 °F 57.5 °F 29.73 in WSW 4.0 mph 12.0 mph 68% 0.00 in
17:09 68.4 °F 56.6 °F 29.72 in SW 8.0 mph 12.0 mph 66% 0.00 in
17:14 68.7 °F 57.3 °F 29.72 in WSW 7.0 mph 14.0 mph 67% 0.00 in
17:19 68.9 °F 57.5 °F 29.72 in WSW 6.0 mph 14.0 mph 67% 0.00 in
17:24 68.7 °F 57.3 °F 29.72 in WSW 6.0 mph 12.0 mph 67% 0.00 in
17:29 68.2 °F 57.2 °F 29.73 in West 5.0 mph 12.0 mph 68% 0.00 in
17:34 68.2 °F 58.0 °F 29.73 in WSW 9.0 mph 13.0 mph 70% 0.00 in
17:39 67.9 °F 58.1 °F 29.73 in WSW 6.0 mph 13.0 mph 71% 0.00 in
17:44 67.7 °F 57.6 °F 29.73 in SW 7.0 mph 14.0 mph 70% 0.00 in
17:49 67.7 °F 57.2 °F 29.73 in WSW 6.0 mph 14.0 mph 69% 0.00 in
17:54 68.1 °F 56.3 °F 29.74 in WSW 6.0 mph 12.0 mph 66% 0.00 in
17:59 67.7 °F 55.9 °F 29.73 in West 6.0 mph 14.0 mph 66% 0.00 in
18:04 67.6 °F 55.8 °F 29.74 in WSW 4.0 mph 13.0 mph 66% 0.00 in
18:09 68.1 °F 56.3 °F 29.74 in SW 5.0 mph 12.0 mph 66% 0.00 in
18:14 68.0 °F 56.2 °F 29.74 in SW 2.0 mph 9.0 mph 66% 0.00 in
18:19 67.8 °F 56.4 °F 29.74 in WSW 5.0 mph 11.0 mph 67% 0.00 in
18:24 67.4 °F 56.5 °F 29.74 in WSW 5.0 mph 11.0 mph 68% 0.00 in
18:29 67.1 °F 56.6 °F 29.74 in SW 5.0 mph 10.0 mph 69% 0.00 in
18:34 66.7 °F 56.6 °F 29.74 in SW 4.0 mph 9.0 mph 70% 0.00 in
18:39 66.4 °F 56.7 °F 29.74 in SSW 3.0 mph 8.0 mph 71% 0.00 in
18:44 66.5 °F 56.8 °F 29.74 in WSW 4.0 mph 6.0 mph 71% 0.00 in
18:49 66.4 °F 56.7 °F 29.74 in WSW 4.0 mph 8.0 mph 71% 0.00 in
18:54 66.4 °F 56.3 °F 29.75 in West 6.0 mph 8.0 mph 70% 0.00 in
18:59 66.4 °F 56.3 °F 29.75 in WSW 3.0 mph 7.0 mph 70% 0.00 in
19:04 66.3 °F 55.8 °F 29.75 in NNW 2.0 mph 11.0 mph 69% 0.00 in
19:09 66.2 °F 56.1 °F 29.75 in West 3.0 mph 9.0 mph 70% 0.00 in
19:14 65.9 °F 56.2 °F 29.75 in SW 3.0 mph 5.0 mph 71% 0.00 in
19:19 65.9 °F 56.2 °F 29.75 in WSW 3.0 mph 6.0 mph 71% 0.00 in
19:24 65.9 °F 56.6 °F 29.75 in WSW 3.0 mph 9.0 mph 72% 0.00 in
19:29 65.7 °F 56.8 °F 29.75 in SW 4.0 mph 10.0 mph 73% 0.00 in
19:34 65.7 °F 57.2 °F 29.75 in SW 5.0 mph 10.0 mph 74% 0.00 in
19:39 65.5 °F 57.4 °F 29.75 in SW 4.0 mph 8.0 mph 75% 0.00 in
19:44 65.4 °F 57.3 °F 29.75 in SW 3.0 mph 7.0 mph 75% 0.00 in
19:49 65.4 °F 57.6 °F 29.75 in SSW 4.0 mph 8.0 mph 76% 0.00 in
19:54 65.5 °F 57.7 °F 29.75 in WSW 3.0 mph 7.0 mph 76% 0.00 in
19:59 65.6 °F 57.8 °F 29.75 in WSW 2.0 mph 7.0 mph 76% 0.00 in
20:04 65.6 °F 57.5 °F 29.76 in WSW 1.0 mph 5.0 mph 75% 0.00 in
20:09 65.6 °F 57.5 °F 29.76 in West 3.0 mph 5.0 mph 75% 0.00 in
20:14 65.6 °F 57.5 °F 29.76 in WSW 1.0 mph 5.0 mph 75% 0.00 in
20:19 65.6 °F 57.1 °F 29.76 in WSW 2.0 mph 8.0 mph 74% 0.00 in
20:24 65.5 °F 57.0 °F 29.77 in WSW 2.0 mph 8.0 mph 74% 0.00 in
20:29 65.3 °F 56.8 °F 29.77 in SW 2.0 mph 6.0 mph 74% 0.00 in
20:34 65.4 °F 56.5 °F 29.77 in WSW 2.0 mph 6.0 mph 73% 0.00 in
20:39 65.3 °F 56.4 °F 29.77 in SW 5.0 mph 5.0 mph 73% 0.00 in
20:44 65.4 °F 56.1 °F 29.77 in SW 2.0 mph 8.0 mph 72% 0.00 in
20:49 65.3 °F 56.4 °F 29.78 in WSW 2.0 mph 5.0 mph 73% 0.00 in
20:54 65.2 °F 56.3 °F 29.78 in WSW 2.0 mph 5.0 mph 73% 0.00 in
20:59 64.9 °F 56.4 °F 29.78 in WSW 1.0 mph 5.0 mph 74% 0.00 in
21:04 64.6 °F 56.5 °F 29.78 in Calm   3.0 mph 75% 0.00 in
21:09 64.4 °F 56.3 °F 29.78 in WSW 1.0 mph 4.0 mph 75% 0.00 in
21:14 64.3 °F 56.6 °F 29.78 in Calm   2.0 mph 76% 0.00 in
21:19 64.0 °F 56.3 °F 29.79 in Calm   2.0 mph 76% 0.00 in
21:24 63.5 °F 56.2 °F 29.79 in Calm   2.0 mph 77% 0.00 in
21:29 63.2 °F 56.2 °F 29.79 in Calm     78% 0.00 in
21:34 62.9 °F 56.3 °F 29.79 in Calm     79% 0.00 in
21:39 62.9 °F 56.3 °F 29.79 in Calm     79% 0.00 in
21:44 62.9 °F 56.6 °F 29.79 in Calm   3.0 mph 80% 0.00 in
21:49 63.1 °F 56.8 °F 29.79 in Calm   1.0 mph 80% 0.00 in
21:54 63.2 °F 56.9 °F 29.80 in Calm   1.0 mph 80% 0.00 in
21:59 63.4 °F 57.5 °F 29.80 in Calm     81% 0.00 in
22:04 63.2 °F 57.6 °F 29.80 in Calm     82% 0.00 in
22:09 63.0 °F 57.4 °F 29.80 in Calm     82% 0.01 in
22:14 62.8 °F 57.6 °F 29.80 in Calm     83% 0.01 in
22:19 62.7 °F 57.8 °F 29.80 in Calm     84% 0.01 in
22:24 62.4 °F 57.8 °F 29.80 in Calm     85% 0.01 in
22:29 62.1 °F 57.5 °F 29.80 in Calm     85% 0.01 in
22:34 61.5 °F 57.3 °F 29.80 in Calm     86% 0.01 in
22:39 61.2 °F 57.3 °F 29.80 in Calm     87% 0.01 in
22:44 60.9 °F 57.0 °F 29.80 in Calm     87% 0.01 in
22:49 60.7 °F 56.8 °F 29.80 in Calm     87% 0.01 in
22:54 60.5 °F 56.3 °F 29.80 in Calm     86% 0.01 in
22:59 60.5 °F 56.0 °F 29.80 in Calm     85% 0.01 in
23:04 60.4 °F 55.9 °F 29.80 in Calm     85% 0.01 in
23:09 60.0 °F 55.8 °F 29.80 in Calm     86% 0.00 in
23:14 59.8 °F 55.3 °F 29.80 in Calm     85% 0.00 in
23:19 59.6 °F 55.4 °F 29.80 in Calm     86% 0.00 in
23:24 59.3 °F 55.1 °F 29.81 in Calm     86% 0.00 in
23:29 59.2 °F 55.0 °F 29.81 in Calm     86% 0.00 in
23:34 58.8 °F 54.9 °F 29.81 in Calm     87% 0.00 in
23:39 58.5 °F 54.6 °F 29.81 in Calm     87% 0.00 in
23:44 58.3 °F 54.4 °F 29.81 in Calm     87% 0.00 in
23:49 58.3 °F 54.8 °F 29.81 in Calm     88% 0.00 in
23:54 58.3 °F 54.8 °F 29.81 in Calm     88% 0.00 in
23:59 58.0 °F 54.5 °F 29.81 in Calm     88% 0.00 in
Buffalo, New York, USA
Compliments of Weather Underground - 2.5 mb